Time;durP1;ratioP1;P1;durP2;ratioP2;P2;SDS_P1;SDS_P2;PMS_P1;PMS_P2;Temp;Humidity;BMP_temperature;BMP_pressure;BME280_temperature;BME280_humidity;BME280_pressure;Samples;Min_cycle;Max_cycle;Signal;HPM_P1;HPM_P2
2022/05/16 00:02:20;;;;;;;22.65;20.30;;;;;;;15.93;76.57;99735.34;5032811;28;20160;-73
2022/05/16 00:04:49;;;;;;;22.63;19.10;;;;;;;15.76;76.79;99739.31;5025348;28;20030;-72
2022/05/16 00:07:16;;;;;;;22.13;17.02;;;;;;;15.79;75.46;99732.16;5013934;28;20030;-72
2022/05/16 00:09:42;;;;;;;21.50;18.02;;;;;;;15.77;75.41;99726.88;5012832;28;20018;-72
2022/05/16 00:12:09;;;;;;;24.70;19.50;;;;;;;15.82;74.59;99722.94;5014109;28;20507;-73
2022/05/16 00:14:36;;;;;;;19.65;17.10;;;;;;;15.64;75.10;99719.69;5014054;28;20523;-72
2022/05/16 00:17:02;;;;;;;21.73;17.25;;;;;;;15.54;75.33;99721.03;5014061;28;20029;-73
2022/05/16 00:19:28;;;;;;;19.20;16.30;;;;;;;15.47;75.40;99718.88;5013119;28;20091;-73
2022/05/16 00:21:53;;;;;;;22.90;17.42;;;;;;;15.50;75.54;99718.13;5015791;28;20026;-73
2022/05/16 00:24:24;;;;;;;20.25;16.73;;;;;;;15.42;75.46;99719.94;5032068;28;20368;-72
2022/05/16 00:26:49;;;;;;;19.42;17.30;;;;;;;15.28;76.42;99728.03;5033629;28;20021;-72
2022/05/16 00:29:15;;;;;;;18.92;16.35;;;;;;;15.29;76.56;99722.00;5022191;28;20461;-72
2022/05/16 00:31:40;;;;;;;18.77;16.30;;;;;;;15.36;75.66;99727.00;5012280;28;20050;-72
2022/05/16 00:34:06;;;;;;;18.38;15.57;;;;;;;15.35;75.30;99735.84;5028912;28;20017;-72
2022/05/16 00:36:31;;;;;;;18.17;15.40;;;;;;;15.22;75.68;99730.28;5030942;28;20033;-72
2022/05/16 00:38:57;;;;;;;23.77;16.58;;;;;;;15.19;75.47;99727.38;5016514;28;20042;-73
2022/05/16 00:41:22;;;;;;;27.45;15.25;;;;;;;15.11;75.94;99729.97;5013384;28;20037;-72
2022/05/16 00:43:52;;;;;;;18.83;15.43;;;;;;;15.11;75.88;99731.97;5012190;28;20485;-72
2022/05/16 00:46:19;;;;;;;18.42;14.70;;;;;;;15.05;75.71;99730.59;5013933;28;20044;-73
2022/05/16 00:48:46;;;;;;;16.08;14.43;;;;;;;15.04;76.00;99735.41;5012657;28;20045;-73
2022/05/16 00:51:26;;;;;;;22.75;15.15;;;;;;;15.15;75.53;99730.91;5013159;28;20025;-72
2022/05/16 00:53:56;;;;;;;15.50;13.88;;;;;;;15.19;74.87;99727.38;5028401;28;20025;-73
2022/05/16 00:56:26;;;;;;;17.00;13.82;;;;;;;15.10;75.33;99728.34;5033125;28;20029;-73
2022/05/16 00:58:52;;;;;;;16.13;13.47;;;;;;;15.07;75.49;99734.69;5032956;28;20053;-72
2022/05/16 01:06:50;;;;;;;20.10;14.02;;;;;;;15.06;75.56;99726.59;5032507;28;20518;-73
2022/05/16 01:09:15;;;;;;;16.65;14.82;;;;;;;15.22;74.63;99729.44;5031174;28;20029;-72
2022/05/16 01:11:41;;;;;;;43.30;15.52;;;;;;;15.05;75.56;99730.59;5032651;28;20025;-72
2022/05/16 01:14:07;;;;;;;17.85;13.82;;;;;;;15.01;75.94;99717.22;5031760;28;20086;-72
2022/05/16 01:16:33;;;;;;;14.57;13.05;;;;;;;14.89;76.37;99720.09;5019712;28;20029;-73
2022/05/16 01:18:59;;;;;;;17.70;14.98;;;;;;;14.77;76.53;99723.78;5020115;28;20462;-73
2022/05/16 01:21:33;;;;;;;18.48;14.32;;;;;;;14.53;77.18;99722.63;5031914;28;20037;-72
2022/05/16 01:24:04;;;;;;;19.60;15.50;;;;;;;14.56;77.49;99724.75;5025945;28;20116;-72
2022/05/16 01:26:32;;;;;;;18.73;14.50;;;;;;;14.59;77.01;99720.41;5032525;28;20038;-73
2022/05/16 01:28:57;;;;;;;15.98;14.23;;;;;;;14.47;77.34;99721.25;5030873;28;20034;-72
2022/05/16 01:31:23;;;;;;;16.30;14.55;;;;;;;14.70;76.93;99715.09;5026361;28;20099;-74
2022/05/16 01:33:49;;;;;;;18.92;13.70;;;;;;;15.12;75.26;99722.34;5019708;28;20504;-73
2022/05/16 01:36:15;;;;;;;15.52;13.93;;;;;;;15.27;74.10;99715.91;5030806;28;20025;-73
2022/05/16 01:38:41;;;;;;;20.48;13.50;;;;;;;15.38;73.71;99732.31;5030995;28;20036;-74
2022/05/16 01:41:10;;;;;;;21.60;14.18;;;;;;;15.16;74.17;99723.25;5030774;28;20515;-73
2022/05/16 01:43:45;;;;;;;17.02;14.02;;;;;;;14.84;75.77;99721.16;5030850;28;20025;-72
2022/05/16 01:46:15;;;;;;;25.23;13.82;;;;;;;15.12;74.82;99730.81;5029995;28;20053;-72
2022/05/16 01:48:40;;;;;;;16.10;14.05;;;;;;;14.93;75.42;99731.47;5026570;28;20590;-73
2022/05/16 01:51:09;;;;;;;21.17;15.02;;;;;;;14.79;76.29;99723.41;5012349;28;20029;-73
2022/05/16 01:53:35;;;;;;;16.88;14.10;;;;;;;14.69;76.92;99731.16;5012542;28;20053;-73
2022/05/16 01:56:00;;;;;;;20.13;14.05;;;;;;;14.78;76.04;99719.81;5021981;28;20496;-72
2022/05/16 01:58:26;;;;;;;18.70;14.75;;;;;;;14.65;76.51;99713.34;5030440;28;20452;-72
2022/05/16 02:00:52;;;;;;;17.23;14.98;;;;;;;14.53;76.83;99710.56;5031693;28;20489;-73
2022/05/16 02:03:18;;;;;;;16.70;13.85;;;;;;;14.60;76.74;99711.59;5031918;28;20018;-73
2022/05/16 02:05:44;;;;;;;15.65;13.70;;;;;;;14.80;76.05;99714.63;5030429;28;20044;-73
2022/05/16 02:08:11;;;;;;;16.02;14.30;;;;;;;15.09;75.28;99729.50;5031390;28;20033;-72
2022/05/16 02:10:37;;;;;;;17.98;14.52;;;;;;;15.37;73.30;99722.22;5027729;28;20036;-73
2022/05/16 02:13:03;;;;;;;16.70;13.68;;;;;;;15.65;72.54;99724.13;5026976;28;20025;-72
2022/05/16 02:15:31;;;;;;;22.02;15.25;;;;;;;15.52;71.89;99717.78;5030970;28;20033;-73
2022/05/16 02:17:57;;;;;;;17.83;14.18;;;;;;;15.62;71.54;99716.41;5031683;28;20048;-72
2022/05/16 02:20:24;;;;;;;17.20;14.50;;;;;;;15.53;72.12;99723.03;5024403;28;20425;-72
2022/05/16 02:25:36;;;;;;;16.63;13.70;;;;;;;15.16;73.27;99726.91;5011475;28;20024;-72
2022/05/16 02:28:03;;;;;;;17.48;14.30;;;;;;;15.04;73.06;99729.78;5010532;28;20030;-72
2022/05/16 02:30:29;;;;;;;26.17;14.98;;;;;;;14.58;75.49;99730.03;5019937;28;20064;-72
2022/05/16 02:32:55;;;;;;;16.85;14.05;;;;;;;14.24;77.03;99726.56;5031441;28;20060;-72
2022/05/16 02:35:21;;;;;;;19.40;15.13;;;;;;;14.09;77.66;99731.75;5030348;28;20036;-72
2022/05/16 02:37:47;;;;;;;18.70;15.82;;;;;;;13.93;79.08;99728.81;5026538;28;20029;-72
2022/05/16 02:40:12;;;;;;;20.33;15.35;;;;;;;13.72;79.82;99706.44;5031445;28;20491;-73
2022/05/16 02:43:08;;;;;;;19.88;17.45;;;;;;;13.70;80.28;99732.09;5030579;28;20026;-72
2022/05/16 02:45:35;;;;;;;21.52;16.98;;;;;;;13.73;80.19;99730.56;5031384;28;20031;-72
2022/05/16 02:48:02;;;;;;;18.40;16.40;;;;;;;13.73;80.32;99730.56;5030290;28;20480;-73
2022/05/16 02:50:28;;;;;;;23.35;15.05;;;;;;;13.73;80.02;99734.22;5026681;28;20475;-72
2022/05/16 02:52:54;;;;;;;19.88;15.57;;;;;;;13.71;79.44;99728.13;5011668;28;20022;-72
2022/05/16 02:55:21;;;;;;;17.10;14.68;;;;;;;13.68;79.72;99722.38;5010620;28;20022;-72
2022/05/16 02:57:46;;;;;;;19.10;15.05;;;;;;;13.71;79.45;99730.94;5010380;28;20428;-73
2022/05/16 03:00:15;;;;;;;20.77;15.82;;;;;;;13.55;80.18;99729.97;5023622;28;20103;-72
2022/05/16 03:02:42;;;;;;;19.30;15.98;;;;;;;13.53;80.49;99741.56;5025947;28;20487;-73
2022/05/16 03:05:08;;;;;;;21.35;16.27;;;;;;;13.45;80.73;99742.47;5018492;28;20057;-72
2022/05/16 03:07:35;;;;;;;25.35;16.23;;;;;;;13.46;80.81;99744.97;5019952;28;20447;-73
2022/05/16 03:10:01;;;;;;;22.17;17.17;;;;;;;13.40;81.09;99737.06;5011454;28;20386;-72
2022/05/16 03:12:26;;;;;;;19.65;16.88;;;;;;;13.40;81.25;99740.69;5011436;28;20080;-73
2022/05/16 03:14:52;;;;;;;21.27;17.15;;;;;;;13.18;81.75;99747.53;5013496;28;20026;-72
2022/05/16 03:17:17;;;;;;;22.15;18.08;;;;;;;13.28;81.75;99740.66;5031079;28;20021;-72
2022/05/16 03:19:43;;;;;;;23.50;18.20;;;;;;;13.40;81.35;99751.91;5025689;28;20543;-72
2022/05/16 03:22:08;;;;;;;20.33;17.75;;;;;;;13.33;81.76;99735.63;5030941;28;20068;-72
2022/05/16 03:24:34;;;;;;;23.77;16.27;;;;;;;13.41;81.55;99749.94;5030979;28;20028;-72
2022/05/16 03:27:00;;;;;;;20.70;16.38;;;;;;;13.54;80.98;99748.81;5014888;28;20017;-72
2022/05/16 03:29:26;;;;;;;21.80;17.50;;;;;;;13.41;81.56;99742.31;5015439;28;20037;-72
2022/05/16 03:31:53;;;;;;;22.35;16.83;;;;;;;13.41;81.67;99758.38;5010180;28;20441;-73
2022/05/16 03:34:19;;;;;;;21.88;17.58;;;;;;;13.47;81.21;99745.75;5016872;28;20063;-73
2022/05/16 03:36:45;;;;;;;33.78;18.13;;;;;;;13.34;81.82;99758.94;5032147;28;20446;-72
2022/05/16 03:41:56;;;;;;;23.33;17.77;;;;;;;13.25;83.05;99775.84;5033790;28;20052;-72
2022/05/16 03:44:21;;;;;;;22.88;17.77;;;;;;;13.27;83.43;99769.91;5016171;28;20040;-72
2022/05/16 03:46:47;;;;;;;35.25;18.55;;;;;;;13.22;83.63;99765.31;5013414;28;20037;-72
2022/05/16 03:49:13;;;;;;;21.65;18.35;;;;;;;13.38;83.42;99764.66;5013592;28;20098;-72
2022/05/16 03:51:39;;;;;;;25.20;18.05;;;;;;;13.39;82.91;99763.50;5014993;28;20022;-72
2022/05/16 03:54:05;;;;;;;25.98;18.58;;;;;;;13.49;82.30;99763.09;5021288;28;20041;-73
2022/05/16 03:56:31;;;;;;;23.63;17.50;;;;;;;13.54;82.43;99771.31;5013031;28;20091;-73
2022/05/16 03:58:57;;;;;;;77.18;19.27;;;;;;;13.60;81.93;99764.28;5016441;28;20107;-72
2022/05/16 04:01:24;;;;;;;23.83;17.85;;;;;;;13.70;81.36;99756.56;5027764;28;20524;-73
2022/05/16 04:03:51;;;;;;;23.05;17.63;;;;;;;13.86;81.03;99773.56;5028969;28;20078;-73
2022/05/16 04:06:17;;;;;;;24.88;16.17;;;;;;;13.80;80.69;99767.38;5027743;28;20030;-72
2022/05/16 04:08:44;;;;;;;21.73;16.52;;;;;;;13.87;80.48;99781.66;5031886;28;20053;-73
2022/05/16 04:11:10;;;;;;;19.67;17.40;;;;;;;13.90;80.39;99778.16;5016948;28;20100;-72
2022/05/16 04:13:36;;;;;;;21.70;17.42;;;;;;;13.85;81.11;99792.44;5013901;28;20026;-73
2022/05/16 04:16:03;;;;;;;23.77;17.17;;;;;;;13.83;81.62;99788.34;5028917;28;20507;-72
2022/05/16 04:18:29;;;;;;;30.92;20.65;;;;;;;13.93;81.53;99778.63;5021582;28;20030;-72
2022/05/16 04:20:54;;;;;;;22.02;18.10;;;;;;;14.03;81.40;99773.34;5033702;28;20025;-72
2022/05/16 04:23:20;;;;;;;24.75;17.92;;;;;;;14.13;81.05;99782.50;5031787;28;20052;-69
2022/05/16 04:25:46;;;;;;;25.73;19.23;;;;;;;14.27;80.30;99782.16;5033646;28;20404;-70
2022/05/16 04:28:12;;;;;;;25.20;18.85;;;;;;;14.37;80.53;99780.84;5027112;28;20111;-71
2022/05/16 04:30:38;;;;;;;28.65;18.63;;;;;;;14.63;79.75;99780.47;5028331;28;20500;-74
2022/05/16 04:33:05;;;;;;;26.65;17.15;;;;;;;14.70;78.98;99783.47;5020534;28;20014;-72
2022/05/16 04:35:30;;;;;;;22.92;18.75;;;;;;;14.66;79.57;99788.19;5033149;28;20030;-72
2022/05/16 04:37:57;;;;;;;24.63;17.35;;;;;;;14.90;78.83;99780.03;5023522;28;20025;-72
2022/05/16 04:40:23;;;;;;;20.75;17.58;;;;;;;15.11;78.03;99785.50;5031691;28;20022;-73
2022/05/16 04:42:49;;;;;;;23.65;17.50;;;;;;;15.10;78.09;99790.31;5031801;28;20025;-72
2022/05/16 04:45:19;;;;;;;19.38;15.77;;;;;;;15.37;77.66;99795.50;5031332;28;20033;-74
2022/05/16 04:47:45;;;;;;;;;;;;;;;15.39;77.26;99790.31;5017012;28;20037;-71
2022/05/16 04:50:14;;;;;;;27.85;16.85;;;;;;;15.38;77.34;99783.03;5013391;28;19917;-70
2022/05/16 04:52:40;;;;;;;23.08;17.45;;;;;;;15.48;75.84;99770.41;5021707;28;20029;-72
2022/05/16 04:55:07;;;;;;;19.27;16.30;;;;;;;15.60;76.08;99781.59;5032981;28;20377;-72
2022/05/16 04:57:33;;;;;;;19.42;17.05;;;;;;;15.60;76.81;99784.44;5033054;28;20025;-70
2022/05/16 04:59:58;;;;;;;34.90;17.83;;;;;;;15.74;76.75;99784.00;5030788;28;20584;-70
2022/05/16 05:02:24;;;;;;;20.85;15.18;;;;;;;15.92;76.38;99784.50;5021452;28;20091;-70
2022/05/16 05:04:50;;;;;;;21.35;16.05;;;;;;;16.06;75.28;99777.56;5018092;28;20028;-72
2022/05/16 05:07:16;;;;;;;19.05;17.05;;;;;;;16.11;74.76;99785.78;5022668;28;20059;-71
2022/05/16 05:15:11;;;;;;;51.30;18.23;;;;;;;16.03;75.74;99795.22;5032701;28;20028;-74
2022/05/16 05:17:37;;;;;;;21.20;15.80;;;;;;;16.17;75.56;99797.56;5021426;28;20034;-73
2022/05/16 05:20:04;;;;;;;23.65;16.25;;;;;;;16.37;75.16;99796.47;5032385;28;20071;-73
2022/05/16 05:22:29;;;;;;;22.05;15.75;;;;;;;16.58;73.47;99789.69;5030250;28;20504;-73
2022/05/16 05:24:55;;;;;;;23.48;14.60;;;;;;;16.48;71.68;99791.09;5026865;28;20087;-73
2022/05/16 05:27:21;;;;;;;20.52;14.40;;;;;;;16.12;72.64;99791.03;5028746;28;20538;-77
2022/05/16 05:29:48;;;;;;;16.45;14.23;;;;;;;16.19;73.37;99792.41;5016495;28;20026;-73
2022/05/16 05:32:15;;;;;;;17.33;13.73;;;;;;;16.55;71.96;99781.97;5011288;28;20084;-71
2022/05/16 05:34:41;;;;;;;20.17;14.82;;;;;;;16.78;72.43;99795.38;5012439;28;20100;-71
2022/05/16 05:37:06;;;;;;;16.63;13.68;;;;;;;17.05;71.56;99799.19;5012962;28;20113;-72
2022/05/16 05:39:34;;;;;;;15.15;13.55;;;;;;;17.12;70.57;99788.06;5027864;28;20025;-72
2022/05/16 05:42:00;;;;;;;18.55;13.77;;;;;;;16.79;72.58;99800.63;5030076;28;20021;-72
2022/05/16 05:44:26;;;;;;;18.30;14.57;;;;;;;16.98;72.04;99797.00;5028171;28;20025;-71
2022/05/16 05:46:51;;;;;;;19.08;14.43;;;;;;;16.81;72.33;99797.47;5024749;28;20519;-72
2022/05/16 05:49:17;;;;;;;19.52;14.25;;;;;;;17.15;72.60;99791.31;5016030;28;20064;-74
2022/05/16 05:51:43;;;;;;;19.20;14.20;;;;;;;17.27;71.67;99782.69;5008916;28;20026;-74
2022/05/16 05:54:09;;;;;;;21.52;13.50;;;;;;;17.46;70.46;99798.00;5009085;28;20041;-74
2022/05/16 05:56:35;;;;;;;20.15;13.80;;;;;;;17.76;69.31;99798.19;5022503;28;20056;-73
2022/05/16 05:59:01;;;;;;;13.55;11.93;;;;;;;17.82;68.80;99801.50;5018293;28;20077;-73
2022/05/16 06:01:27;;;;;;;15.18;13.40;;;;;;;17.71;69.23;99794.84;5028327;28;20527;-74
2022/05/16 06:03:53;;;;;;;17.23;13.30;;;;;;;17.70;67.92;99785.53;5028464;28;20492;-73
2022/05/16 06:06:19;;;;;;;20.23;13.52;;;;;;;17.85;68.43;99805.56;5021108;28;20029;-71
2022/05/16 06:08:45;;;;;;;18.45;13.15;;;;;;;18.35;68.02;99802.81;5017290;28;20052;-73
2022/05/16 06:11:10;;;;;;;15.27;12.35;;;;;;;18.52;66.58;99804.28;5026630;28;20100;-73
2022/05/16 06:13:38;;;;;;;24.00;13.55;;;;;;;18.61;65.09;99804.84;5022316;28;20463;-73
2022/05/16 06:16:05;;;;;;;16.75;13.07;;;;;;;18.82;65.54;99800.66;5020690;28;20111;-74
2022/05/16 06:18:30;;;;;;;17.20;13.50;;;;;;;19.18;64.93;99791.84;5009217;28;20509;-74
2022/05/16 06:20:56;;;;;;;20.52;14.02;;;;;;;19.42;64.39;99796.19;5022264;28;20088;-73
2022/05/16 06:23:21;;;;;;;17.17;13.27;;;;;;;19.50;62.78;99805.59;5012989;28;20022;-73
2022/05/16 06:25:47;;;;;;;16.25;13.32;;;;;;;19.63;62.92;99804.13;5033353;28;20033;-74
2022/05/16 06:28:21;;;;;;;18.77;14.23;;;;;;;19.72;62.23;99803.81;5028837;28;20036;-74
2022/05/16 06:30:49;;;;;;;13.68;12.07;;;;;;;19.79;60.94;99805.91;5029567;28;20108;-73
2022/05/16 06:33:16;;;;;;;21.60;12.50;;;;;;;20.02;59.76;99785.84;5018291;28;20397;-73
2022/05/16 06:35:42;;;;;;;16.52;12.68;;;;;;;20.13;60.38;99796.50;5024768;28;20033;-73
2022/05/16 06:38:13;;;;;;;14.82;12.63;;;;;;;20.22;60.38;99791.31;5031142;28;20155;-72
2022/05/16 06:40:41;;;;;;;14.70;13.10;;;;;;;20.42;60.19;99788.22;5030644;28;20033;-78
2022/05/16 06:43:08;;;;;;;18.98;13.20;;;;;;;20.22;60.07;99788.47;5041850;28;20028;-71
2022/05/16 06:45:33;;;;;;;15.05;12.68;;;;;;;20.63;59.89;99784.69;5028605;28;20033;-75
2022/05/16 06:48:00;;;;;;;16.52;13.52;;;;;;;20.81;58.48;99790.50;5029134;28;20033;-70
2022/05/16 06:50:25;;;;;;;18.30;12.07;;;;;;;20.90;58.22;99779.59;5027308;28;20048;-73
2022/05/16 06:52:51;;;;;;;13.73;11.60;;;;;;;21.07;56.50;99784.97;5017477;28;20060;-73
2022/05/16 06:55:17;;;;;;;18.73;12.15;;;;;;;21.17;56.99;99778.47;5028182;28;20514;-71
2022/05/16 06:58:06;;;;;;;13.63;11.80;;;;;;;21.41;55.48;99788.31;5029859;28;20599;-74
2022/05/16 07:00:32;;;;;;;17.98;12.75;;;;;;;21.82;55.42;99780.72;5010843;28;20046;-74
2022/05/16 07:02:58;;;;;;;12.77;10.85;;;;;;;21.73;55.04;99787.63;4999172;28;20034;-74
2022/05/16 07:05:23;;;;;;;22.50;12.52;;;;;;;21.95;54.27;99790.47;5004975;28;20041;-74
2022/05/16 07:07:49;;;;;;;18.00;12.57;;;;;;;22.07;54.44;99788.44;5005263;28;20024;-74
2022/05/16 07:10:14;;;;;;;15.48;11.50;;;;;;;22.07;53.81;99789.28;4998963;28;20489;-74
2022/05/16 07:12:40;;;;;;;16.25;13.20;;;;;;;21.79;53.63;99790.88;5007655;28;20030;-74
2022/05/16 07:15:06;;;;;;;13.48;11.55;;;;;;;21.89;54.48;99789.28;5011433;28;20074;-74
2022/05/16 07:17:31;;;;;;;19.33;12.00;;;;;;;21.99;53.84;99791.31;4993425;28;20030;-75
2022/05/16 07:19:57;;;;;;;17.73;11.43;;;;;;;22.25;52.68;99789.28;5011559;28;20060;-75
2022/05/16 07:22:23;;;;;;;19.58;11.27;;;;;;;22.58;52.21;99792.13;5012267;28;20049;-74
2022/05/16 07:24:55;;;;;;;14.13;10.60;;;;;;;22.43;51.22;99783.56;5010112;28;20018;-75
2022/05/16 07:30:08;;;;;;;10.73;9.63;;;;;;;22.85;51.03;99792.47;5010031;28;20061;-72
2022/05/16 07:32:43;;;;;;;13.07;9.63;;;;;;;23.20;50.30;99789.09;5007596;28;20022;-71
2022/05/16 07:35:15;;;;;;;13.32;9.18;;;;;;;23.07;49.12;99781.00;5005222;28;20029;-74
2022/05/16 07:37:41;;;;;;;12.18;8.55;;;;;;;23.27;49.36;99775.63;5002502;28;20353;-73
2022/05/16 07:40:09;;;;;;;16.77;9.10;;;;;;;23.17;49.29;99772.78;5010356;28;20042;-73
2022/05/16 07:42:35;;;;;;;9.93;8.80;;;;;;;23.29;48.51;99769.50;5010951;28;20105;-75
2022/05/16 07:45:03;;;;;;;11.10;8.25;;;;;;;23.72;48.02;99777.00;5012862;28;20140;-74
2022/05/16 07:47:32;;;;;;;11.43;9.20;;;;;;;23.41;47.39;99766.19;5009618;28;20037;-73
2022/05/16 07:49:59;;;;;;;13.57;9.33;;;;;;;23.76;48.21;99762.69;5007995;28;20034;-72
2022/05/16 07:52:25;;;;;;;12.13;9.48;;;;;;;23.98;46.02;99761.28;5007384;28;20029;-73
2022/05/16 07:54:52;;;;;;;11.80;9.73;;;;;;;24.09;45.98;99757.56;5008974;28;20042;-77
2022/05/16 07:57:18;;;;;;;8.90;8.00;;;;;;;23.65;46.23;99763.59;5007529;28;20031;-76
2022/05/16 07:59:45;;;;;;;9.02;8.07;;;;;;;23.72;46.50;99757.03;5025462;28;20407;-78
2022/05/16 08:02:12;;;;;;;12.18;8.75;;;;;;;23.83;46.82;99754.06;5040177;28;20030;-77
2022/05/16 08:04:38;;;;;;;10.23;7.78;;;;;;;23.91;43.78;99749.94;5043896;28;20054;-80
2022/05/16 08:07:04;;;;;;;10.07;8.02;;;;;;;24.15;44.60;99755.91;5040883;28;20096;-77
2022/05/16 08:12:33;;;;;;;15.02;8.55;;;;;;;24.54;44.75;99745.28;5035339;28;20064;-74
2022/05/16 08:15:00;;;;;;;10.63;8.75;;;;;;;24.58;43.88;99754.66;5032428;28;20105;-75
2022/05/16 08:17:27;;;;;;;14.93;8.20;;;;;;;24.47;43.80;99753.97;5022527;28;20087;-79
2022/05/16 08:19:52;;;;;;;8.80;7.82;;;;;;;24.27;44.76;99753.75;5034138;28;20027;-77
2022/05/16 08:22:18;;;;;;;10.57;8.27;;;;;;;24.60;44.17;99745.63;5016054;28;20034;-76
2022/05/16 08:24:45;;;;;;;9.20;8.18;;;;;;;24.49;43.19;99748.63;5017123;28;20126;-74
2022/05/16 08:27:10;;;;;;;9.25;7.97;;;;;;;24.59;44.23;99744.84;5034401;28;20034;-76
2022/05/16 08:29:36;;;;;;;16.63;7.57;;;;;;;24.66;43.25;99750.47;5037611;28;20034;-75
2022/05/16 08:32:03;;;;;;;11.98;8.00;;;;;;;24.17;42.89;99752.59;5023740;28;20108;-77
2022/05/16 08:34:30;;;;;;;9.82;6.88;;;;;;;24.44;42.78;99744.19;5029092;28;20025;-77
2022/05/16 08:40:03;;;;;;;8.05;7.35;;;;;;;24.53;41.22;99738.78;5028460;28;20519;-75
2022/05/16 08:42:53;;;;;;;16.65;6.95;;;;;;;25.36;41.19;99739.00;5031972;28;20112;-76
2022/05/16 08:45:29;;;;;;;13.63;6.70;;;;;;;25.74;39.45;99740.94;5044166;28;20088;-77
2022/05/16 08:48:00;;;;;;;15.23;7.03;;;;;;;25.69;39.11;99727.09;5027342;28;20021;-75
2022/05/16 08:50:34;;;;;;;10.15;6.72;;;;;;;25.47;37.47;99730.28;5028576;28;20388;-74
2022/05/16 08:53:05;;;;;;;8.90;6.80;;;;;;;25.44;37.92;99736.84;5028979;28;20017;-76
2022/05/16 08:55:57;;;;;;;9.10;5.93;;;;;;;25.02;37.67;99734.97;5032108;28;20021;-76
2022/05/16 08:58:29;;;;;;;6.72;5.70;;;;;;;25.23;37.04;99733.88;5029821;28;20041;-75
2022/05/16 09:01:06;;;;;;;8.30;6.20;;;;;;;25.92;38.50;99734.94;5039206;28;20502;-76
2022/05/16 09:03:39;;;;;;;8.23;5.90;;;;;;;26.43;37.21;99731.19;5028887;28;20041;-76
2022/05/16 09:06:19;;;;;;;10.80;6.10;;;;;;;25.87;36.82;99729.66;5027854;28;20034;-75
2022/05/16 09:09:05;;;;;;;8.38;6.25;;;;;;;26.16;36.16;99724.25;5033542;28;20400;-76
2022/05/16 09:11:54;;;;;;;9.77;4.93;;;;;;;26.08;34.34;99720.72;5033660;28;20116;-75
2022/05/16 09:14:47;;;;;;;7.45;4.60;;;;;;;25.99;35.11;99726.19;5033533;28;20025;-75
2022/05/16 09:17:39;;;;;;;23.67;6.28;;;;;;;26.07;35.49;99719.09;5036211;28;20040;-75
2022/05/16 09:20:19;;;;;;;7.15;5.30;;;;;;;26.72;34.09;99716.28;5019170;28;20044;-75
2022/05/16 09:23:17;;;;;;;11.13;6.25;;;;;;;26.43;35.33;99706.22;5031940;28;20053;-75
2022/05/16 09:25:51;;;;;;;6.60;5.45;;;;;;;26.25;35.87;99706.56;5043645;28;20037;-75
2022/05/16 09:28:34;;;;;;;7.93;4.93;;;;;;;26.69;33.70;99702.81;5025347;28;20026;-75
2022/05/16 09:31:10;;;;;;;5.25;4.75;;;;;;;26.64;32.25;99701.28;5021452;28;20557;-75
2022/05/16 09:33:46;;;;;;;5.90;4.78;;;;;;;26.83;32.61;99696.00;5025665;28;20028;-75
2022/05/16 09:36:14;;;;;;;6.38;5.13;;;;;;;27.10;32.26;99695.03;5019468;28;20090;-76
2022/05/16 09:38:44;;;;;;;7.38;4.90;;;;;;;27.08;33.14;99691.81;5026121;28;20090;-75
2022/05/16 09:41:20;;;;;;;6.90;4.70;;;;;;;27.36;32.00;99684.59;5020333;28;20095;-75
2022/05/16 09:43:56;;;;;;;8.57;4.95;;;;;;;27.85;31.68;99688.78;5015193;28;20454;-75
2022/05/16 09:46:43;;;;;;;5.50;4.57;;;;;;;27.94;31.30;99685.28;5021066;28;20022;-75
2022/05/16 09:49:13;;;;;;;7.07;4.22;;;;;;;27.71;30.50;99685.03;5023709;28;20025;-74
2022/05/16 09:51:49;;;;;;;5.97;4.30;;;;;;;27.41;30.16;99677.53;5008984;28;20523;-77
2022/05/16 09:54:37;;;;;;;5.13;3.95;;;;;;;27.41;30.73;99669.69;5020798;28;20350;-75
2022/05/16 09:57:20;;;;;;;9.60;4.35;;;;;;;27.35;31.23;99670.69;5020103;28;20060;-72
2022/05/16 09:59:45;;;;;;;8.93;4.95;;;;;;;26.93;32.22;99672.03;5015565;28;20053;-73
2022/05/16 10:02:31;;;;;;;7.40;4.20;;;;;;;27.12;31.72;99670.38;5020029;28;20056;-75
2022/05/16 10:05:21;;;;;;;7.70;4.55;;;;;;;27.32;30.39;99666.63;5027462;28;20032;-77
2022/05/16 10:07:51;;;;;;;6.90;4.68;;;;;;;27.12;30.26;99658.91;5024466;28;20045;-77
2022/05/16 10:10:20;;;;;;;8.57;4.35;;;;;;;27.35;30.18;99654.28;5030692;28;20030;-77
2022/05/16 10:12:48;;;;;;;8.10;5.10;;;;;;;27.32;30.31;99653.09;5026553;28;20104;-77
2022/05/16 10:15:14;;;;;;;10.25;5.25;;;;;;;27.40;29.59;99644.31;5015806;28;20026;-76
2022/05/16 10:17:42;;;;;;;5.63;4.50;;;;;;;27.28;29.72;99645.81;5019897;28;21922;-76
2022/05/16 10:20:14;;;;;;;5.65;4.43;;;;;;;27.60;29.50;99630.69;5026769;28;20037;-76
2022/05/16 10:22:39;;;;;;;7.88;4.43;;;;;;;27.74;28.65;99628.72;5022896;28;20046;-77
2022/05/16 10:25:11;;;;;;;9.00;4.63;;;;;;;28.01;28.02;99624.75;5019891;28;20074;-77
2022/05/16 10:27:38;;;;;;;9.30;4.55;;;;;;;28.12;27.72;99619.50;5031275;28;20053;-76
2022/05/16 10:30:15;;;;;;;10.07;4.38;;;;;;;28.06;27.38;99611.91;5026722;28;20029;-76
2022/05/16 10:35:40;;;;;;;6.57;3.90;;;;;;;28.09;28.75;99602.34;5030601;28;20095;-77
2022/05/16 10:38:22;;;;;;;6.37;3.40;;;;;;;27.71;26.96;99587.34;5029582;28;20036;-77
2022/05/16 10:40:56;;;;;;;6.57;4.13;;;;;;;28.03;26.79;99597.16;5027127;28;20430;-76
2022/05/16 10:43:42;;;;;;;4.13;3.65;;;;;;;28.59;26.93;99588.59;5031005;28;20567;-76
2022/05/16 10:46:15;;;;;;;7.15;3.90;;;;;;;28.70;27.33;99585.41;5027690;28;20029;-77
2022/05/16 10:48:59;;;;;;;10.05;4.15;;;;;;;28.98;26.59;99586.63;5023717;28;20029;-76
2022/05/16 10:51:39;;;;;;;6.30;3.67;;;;;;;29.54;26.51;99580.72;5034791;28;20064;-77
2022/05/16 10:54:06;;;;;;;;;;;;;;;29.75;25.70;99578.38;5040163;28;20205;-76
2022/05/16 10:56:40;;;;;;;7.15;3.40;;;;;;;30.05;23.69;99578.97;5028148;28;19963;-76
2022/05/16 10:59:30;;;;;;;12.00;3.53;;;;;;;30.29;23.66;99576.47;5051511;28;20101;-77
2022/05/16 11:02:04;;;;;;;4.00;3.00;;;;;;;30.21;23.80;99564.34;5041435;28;20029;-76
2022/05/16 11:04:57;;;;;;;4.07;3.25;;;;;;;30.20;22.45;99571.41;5031350;28;20144;-76
2022/05/16 11:07:43;;;;;;;7.47;3.42;;;;;;;30.10;22.83;99569.72;5033401;28;20029;-76
2022/05/16 11:10:25;;;;;;;8.05;3.08;;;;;;;29.76;22.38;99556.94;5024068;28;20033;-76
2022/05/16 11:13:26;;;;;;;5.15;3.70;;;;;;;29.99;23.25;99564.31;5023681;28;20137;-76
2022/05/16 11:15:56;;;;;;;7.15;3.55;;;;;;;30.06;22.66;99554.63;5031334;28;20025;-77
2022/05/16 11:18:30;;;;;;;;;;;;;;;30.01;23.21;99549.47;5029604;28;20115;-76
2022/05/16 11:21:07;;;;;;;7.18;3.63;;;;;;;29.21;23.76;99540.66;5028580;28;20308;-76
2022/05/16 11:23:35;;;;;;;14.60;4.20;;;;;;;28.91;24.31;99543.66;5032149;28;20029;-74
2022/05/16 11:26:47;;;;;;;7.15;4.00;;;;;;;29.17;24.83;99546.53;5029181;28;20124;-75
2022/05/16 11:29:39;;;;;;;7.63;3.72;;;;;;;28.68;24.99;99541.91;5028880;28;20103;-75
2022/05/16 11:32:07;;;;;;;4.55;2.83;;;;;;;28.63;25.45;99537.53;5013982;28;20038;-75
2022/05/16 11:35:02;;;;;;;4.78;3.67;;;;;;;29.16;24.06;99530.53;5021291;28;20068;-75
2022/05/16 11:37:46;;;;;;;8.23;4.18;;;;;;;29.06;23.22;99523.06;5033872;28;20021;-75
2022/05/16 11:40:20;;;;;;;4.78;3.17;;;;;;;28.88;23.79;99524.47;5028341;28;20029;-75
2022/05/16 11:43:04;;;;;;;14.13;4.35;;;;;;;28.91;23.58;99517.78;5026271;28;20044;-75
2022/05/16 11:45:39;;;;;;;6.35;3.35;;;;;;;28.64;23.69;99503.81;5028568;28;20033;-76
2022/05/16 11:48:35;;;;;;;4.63;3.25;;;;;;;28.80;22.90;99500.84;5030604;28;20037;-76
2022/05/16 11:51:24;;;;;;;6.13;3.60;;;;;;;28.58;23.91;99494.94;5032403;28;20060;-76
2022/05/16 11:53:53;;;;;;;7.13;3.72;;;;;;;29.05;23.64;99487.72;5034402;28;20029;-76
2022/05/16 12:02:30;;;;;;;3.50;3.20;;;;;;;29.84;22.04;99483.34;5033953;28;20396;-76
2022/05/16 12:05:31;;;;;;;4.35;2.90;;;;;;;29.84;21.33;99475.50;5027397;28;20026;-75
2022/05/16 12:08:20;;;;;;;6.97;2.58;;;;;;;29.79;22.54;99478.19;5014240;28;20034;-75
2022/05/16 12:11:16;;;;;;;4.05;2.65;;;;;;;30.63;21.06;99461.41;5013650;28;20112;-74